createdAt,value
2024-01-11T00:01:11.610Z,102357.86
2024-01-11T00:03:40.920Z,102357.84
2024-01-11T00:06:09.471Z,102357.84
2024-01-11T00:08:37.758Z,102360.25
2024-01-11T00:11:07.548Z,102360.59
2024-01-11T00:13:35.844Z,102358.70
2024-01-11T00:16:05.036Z,102360.41
2024-01-11T00:18:33.638Z,102359.64
2024-01-11T00:21:02.041Z,102358.21
2024-01-11T00:23:30.595Z,102361.25
2024-01-11T00:25:58.862Z,102360.66
2024-01-11T00:28:26.997Z,102360.30
2024-01-11T00:30:55.257Z,102359.00
2024-01-11T00:33:23.630Z,102351.83
2024-01-11T00:35:51.845Z,102355.77
2024-01-11T00:38:20.013Z,102354.00
2024-01-11T00:40:48.547Z,102350.23
2024-01-11T00:43:16.890Z,102350.72
2024-01-11T00:45:47.238Z,102344.36
2024-01-11T00:48:15.595Z,102339.61
2024-01-11T00:50:44.108Z,102333.40
2024-01-11T00:53:15.762Z,102335.29
2024-01-11T00:55:44.525Z,102324.79
2024-01-11T00:58:13.375Z,102322.70
2024-01-11T01:00:41.601Z,102316.11
2024-01-11T01:03:10.004Z,102313.59
2024-01-11T01:05:38.380Z,102309.95
2024-01-11T01:08:06.714Z,102308.85
2024-01-11T01:10:35.132Z,102296.41
2024-01-11T01:13:05.326Z,102292.14
2024-01-11T01:15:33.713Z,102293.89
2024-01-11T01:18:02.528Z,102287.63
2024-01-11T01:20:31.244Z,102287.48
2024-01-11T01:22:59.848Z,102282.85
2024-01-11T01:25:28.336Z,102279.52
2024-01-11T01:27:57.657Z,102276.86
2024-01-11T01:30:26.131Z,102277.05
2024-01-11T01:32:55.355Z,102275.15
2024-01-11T01:35:23.656Z,102274.86
2024-01-11T01:37:52.288Z,102268.64
2024-01-11T01:40:22.760Z,102262.95
2024-01-11T01:43:00.363Z,102256.55
2024-01-11T01:45:28.650Z,102256.52
2024-01-11T01:47:57.214Z,102250.82
2024-01-11T01:50:26.800Z,102241.58
2024-01-11T01:52:57.247Z,102239.88
2024-01-11T01:55:26.814Z,102228.84
2024-01-11T01:57:55.716Z,102229.34
2024-01-11T02:00:24.343Z,102222.38
2024-01-11T02:02:55.991Z,102221.01
2024-01-11T02:05:25.417Z,102219.73
2024-01-11T02:07:53.979Z,102215.23
2024-01-11T02:10:24.103Z,102209.84
2024-01-11T02:12:52.359Z,102204.02
2024-01-11T02:15:20.829Z,102204.11
2024-01-11T02:17:49.376Z,102203.19
2024-01-11T02:20:17.869Z,102197.19
2024-01-11T02:22:51.516Z,102191.83
2024-01-11T02:25:19.692Z,102191.27
2024-01-11T02:27:51.618Z,102192.88
2024-01-11T02:30:20.116Z,102181.79
2024-01-11T02:32:50.732Z,102183.34
2024-01-11T02:35:20.545Z,102179.52
2024-01-11T02:37:49.950Z,102177.67
2024-01-11T02:40:20.447Z,102171.80
2024-01-11T02:42:48.888Z,102171.50
2024-01-11T02:45:17.330Z,102168.86
2024-01-11T02:47:46.168Z,102164.73
2024-01-11T02:50:14.837Z,102159.18
2024-01-11T02:52:43.408Z,102157.83
2024-01-11T02:55:12.292Z,102151.20
2024-01-11T02:57:40.469Z,102148.20
2024-01-11T03:00:09.355Z,102146.45
2024-01-11T03:02:40.181Z,102141.19
2024-01-11T03:05:09.482Z,102141.25
2024-01-11T03:07:37.992Z,102140.67
2024-01-11T03:10:06.766Z,102136.46
2024-01-11T03:12:34.884Z,102140.23
2024-01-11T03:15:03.600Z,102137.86
2024-01-11T03:17:32.165Z,102134.45
2024-01-11T03:20:01.456Z,102135.50
2024-01-11T03:22:29.689Z,102130.61
2024-01-11T03:24:58.006Z,102124.80
2024-01-11T03:27:26.708Z,102119.40
2024-01-11T03:29:54.865Z,102123.78
2024-01-11T03:32:23.168Z,102120.38
2024-01-11T03:34:51.398Z,102120.06
2024-01-11T03:37:20.135Z,102117.15
2024-01-11T03:39:48.252Z,102116.27
2024-01-11T03:42:16.409Z,102111.83
2024-01-11T03:44:44.699Z,102106.77
2024-01-11T03:47:13.153Z,102102.36
2024-01-11T03:49:41.613Z,102097.04
2024-01-11T03:52:09.951Z,102096.16
2024-01-11T03:54:38.313Z,102092.20
2024-01-11T03:57:07.867Z,102085.59
2024-01-11T03:59:36.447Z,102085.77
2024-01-11T04:02:05.625Z,102085.00
2024-01-11T04:04:34.478Z,102077.66
2024-01-11T04:07:02.737Z,102071.73
2024-01-11T04:09:31.119Z,102065.69
2024-01-11T04:11:59.434Z,102061.02
2024-01-11T04:14:27.663Z,102058.17
2024-01-11T04:16:56.604Z,102056.30
2024-01-11T04:19:25.086Z,102048.58
2024-01-11T04:21:53.589Z,102043.97
2024-01-11T04:24:21.883Z,102045.17
2024-01-11T04:26:50.209Z,102041.23
2024-01-11T04:29:19.828Z,102037.17
2024-01-11T04:31:48.309Z,102036.45
2024-01-11T04:34:16.540Z,102033.34
2024-01-11T04:36:44.966Z,102037.89
2024-01-11T04:39:13.436Z,102038.98
2024-01-11T04:41:42.205Z,102039.99
2024-01-11T04:44:11.753Z,102040.05
2024-01-11T04:46:39.955Z,102037.45
2024-01-11T04:49:08.455Z,102041.77
2024-01-11T04:51:37.171Z,102035.13
2024-01-11T04:54:05.632Z,102030.28
2024-01-11T04:56:34.116Z,102032.15
2024-01-11T04:59:02.813Z,102026.19
2024-01-11T05:01:31.430Z,102015.20
2024-01-11T05:03:59.915Z,102018.55
2024-01-11T05:06:28.390Z,102016.42
2024-01-11T05:08:56.571Z,102014.91
2024-01-11T05:11:26.048Z,102005.36
2024-01-11T05:13:54.557Z,101998.80
2024-01-11T05:16:27.404Z,102001.84
2024-01-11T05:18:58.167Z,101999.96
2024-01-11T05:21:29.269Z,102000.40
2024-01-11T05:23:57.443Z,101994.54
2024-01-11T05:26:25.665Z,101995.81
2024-01-11T05:28:54.219Z,101992.95
2024-01-11T05:31:23.519Z,101995.46
2024-01-11T05:33:51.883Z,101996.10
2024-01-11T05:36:20.325Z,101991.46
2024-01-11T05:38:48.808Z,101984.30
2024-01-11T05:41:17.236Z,101979.36
2024-01-11T05:43:45.715Z,101976.76
2024-01-11T05:46:14.293Z,101973.11
2024-01-11T05:48:44.069Z,101963.43
2024-01-11T05:51:12.560Z,101964.65
2024-01-11T05:53:41.247Z,101959.49
2024-01-11T05:56:11.088Z,101955.64
2024-01-11T05:58:41.138Z,101949.83
2024-01-11T06:01:10.092Z,101948.45
2024-01-11T06:03:39.890Z,101945.54
2024-01-11T06:06:09.542Z,101940.77
2024-01-11T06:08:38.493Z,101941.31
2024-01-11T06:11:09.157Z,101939.70
2024-01-11T06:13:38.043Z,101941.02
2024-01-11T06:16:07.588Z,101935.62
2024-01-11T06:18:36.855Z,101929.95
2024-01-11T06:21:05.230Z,101919.98
2024-01-11T06:23:33.508Z,101913.03
2024-01-11T06:26:01.888Z,101911.07
2024-01-11T06:28:31.726Z,101912.19
2024-01-11T06:31:01.198Z,101911.75
2024-01-11T06:33:29.737Z,101901.98
2024-01-11T06:35:59.690Z,101898.94
2024-01-11T06:38:28.028Z,101894.38
2024-01-11T06:40:56.402Z,101886.77
2024-01-11T06:43:24.712Z,101882.41
2024-01-11T06:45:54.297Z,101877.80
2024-01-11T06:48:22.845Z,101868.98
2024-01-11T06:50:51.534Z,101867.19
2024-01-11T06:53:19.823Z,101864.58
2024-01-11T06:55:48.926Z,101864.08
2024-01-11T06:58:17.542Z,101861.76
2024-01-11T07:00:45.866Z,101856.48
2024-01-11T07:03:14.158Z,101848.84
2024-01-11T07:05:42.974Z,101847.29
2024-01-11T07:08:11.758Z,101843.33
2024-01-11T07:10:40.005Z,101839.73
2024-01-11T07:13:08.351Z,101837.14
2024-01-11T07:15:36.556Z,101831.69
2024-01-11T07:18:05.651Z,101830.17
2024-01-11T07:20:34.959Z,101818.42
2024-01-11T07:23:03.660Z,101809.79
2024-01-11T07:25:32.049Z,101807.09
2024-01-11T07:28:00.380Z,101803.61
2024-01-11T07:30:28.731Z,101803.36
2024-01-11T07:32:57.100Z,101803.20
2024-01-11T07:35:25.972Z,101805.33
2024-01-11T07:37:55.469Z,101803.08
2024-01-11T07:40:27.094Z,101800.68
2024-01-11T07:42:55.267Z,101792.56
2024-01-11T07:45:24.335Z,101788.81
2024-01-11T07:47:52.780Z,101781.04
2024-01-11T07:50:21.510Z,101776.70
2024-01-11T07:52:50.199Z,101779.66
2024-01-11T07:55:19.402Z,101774.23
2024-01-11T07:57:47.531Z,101767.58
2024-01-11T08:00:16.430Z,101763.40
2024-01-11T08:02:44.962Z,101756.39
2024-01-11T08:05:13.555Z,101754.22
2024-01-11T08:07:43.409Z,101748.54
2024-01-11T08:10:11.885Z,101743.21
2024-01-11T08:12:40.050Z,101742.38
2024-01-11T08:15:13.856Z,101746.77
2024-01-11T08:17:49.671Z,101738.09
2024-01-11T08:20:18.030Z,101734.98
2024-01-11T08:22:47.863Z,101732.04
2024-01-11T08:25:16.532Z,101724.38
2024-01-11T08:27:44.756Z,101718.80
2024-01-11T08:30:14.087Z,101717.02
2024-01-11T08:32:43.286Z,101707.21
2024-01-11T08:35:13.488Z,101702.22
2024-01-11T08:37:41.920Z,101696.40
2024-01-11T08:40:11.113Z,101690.57
2024-01-11T08:42:40.746Z,101683.54
2024-01-11T08:45:10.016Z,101678.29
2024-01-11T08:47:40.048Z,101675.27
2024-01-11T08:50:09.040Z,101664.66
2024-01-11T08:52:39.002Z,101656.89
2024-01-11T08:55:10.366Z,101653.00
2024-01-11T08:57:38.707Z,101651.81
2024-01-11T09:00:08.191Z,101652.59
2024-01-11T09:02:36.682Z,101650.11
2024-01-11T09:05:09.353Z,101642.40
2024-01-11T09:07:38.842Z,101638.54
2024-01-11T09:10:12.721Z,101630.66
2024-01-11T09:12:41.216Z,101626.45
2024-01-11T09:15:09.770Z,101615.41
2024-01-11T09:17:39.158Z,101609.81
2024-01-11T09:20:08.401Z,101605.23
2024-01-11T09:22:36.612Z,101600.56
2024-01-11T09:25:05.681Z,101600.17
2024-01-11T09:27:34.068Z,101589.65
2024-01-11T09:30:02.742Z,101578.98
2024-01-11T09:32:32.455Z,101574.25
2024-01-11T09:35:00.895Z,101569.77
2024-01-11T09:37:29.424Z,101565.52
2024-01-11T09:39:57.544Z,101560.27
2024-01-11T09:42:25.928Z,101549.08
2024-01-11T09:44:56.730Z,101542.92
2024-01-11T09:47:26.716Z,101533.36
2024-01-11T09:49:58.264Z,101520.86
2024-01-11T09:52:27.536Z,101513.14
2024-01-11T09:54:56.350Z,101511.66
2024-01-11T09:57:29.600Z,101510.11
2024-01-11T09:59:59.192Z,101509.07
2024-01-11T10:02:28.247Z,101501.78
2024-01-11T10:04:57.863Z,101496.80
2024-01-11T10:07:26.477Z,101485.88
2024-01-11T10:09:54.998Z,101486.06
2024-01-11T10:12:26.637Z,101486.76
2024-01-11T10:14:55.712Z,101483.93
2024-01-11T10:17:25.796Z,101478.89
2024-01-11T10:19:56.545Z,101480.79
2024-01-11T10:22:27.234Z,101478.55
2024-01-11T10:25:16.904Z,101456.81
2024-01-11T10:27:49.322Z,101452.09
2024-01-11T10:30:18.992Z,101455.76
2024-01-11T10:32:48.609Z,101444.21
2024-01-11T10:35:19.432Z,101440.98
2024-01-11T10:37:55.023Z,101438.77
2024-01-11T10:40:26.997Z,101435.61
2024-01-11T10:43:00.485Z,101425.52
2024-01-11T10:45:31.930Z,101422.78
2024-01-11T10:48:07.035Z,101423.48
2024-01-11T10:50:42.982Z,101419.88
2024-01-11T10:53:33.657Z,101414.20
2024-01-11T10:56:05.100Z,101404.63
2024-01-11T10:58:36.472Z,101401.19
2024-01-11T11:01:07.389Z,101396.53
2024-01-11T11:03:37.128Z,101394.85
2024-01-11T11:06:07.947Z,101389.41
2024-01-11T11:08:38.463Z,101382.21
2024-01-11T11:11:07.709Z,101376.66
2024-01-11T11:13:36.652Z,101377.35
2024-01-11T11:16:05.692Z,101380.28
2024-01-11T11:18:36.648Z,101373.29
2024-01-11T11:21:12.341Z,101364.48
2024-01-11T11:23:40.921Z,101358.42
2024-01-11T11:26:17.751Z,101351.35
2024-01-11T11:28:49.642Z,101352.40
2024-01-11T11:31:58.395Z,101351.34
2024-01-11T11:34:48.194Z,101340.81
2024-01-11T11:37:25.387Z,101333.62
2024-01-11T11:39:53.774Z,101330.39
2024-01-11T11:42:27.159Z,101320.41
2024-01-11T11:44:55.501Z,101313.02
2024-01-11T11:47:25.082Z,101308.63
2024-01-11T11:50:12.914Z,101306.94
2024-01-11T11:52:45.003Z,101304.92
2024-01-11T11:55:14.095Z,101293.29
2024-01-11T11:57:44.355Z,101295.42
2024-01-11T12:00:14.346Z,101284.75
2024-01-11T12:02:43.291Z,101284.52
2024-01-11T12:05:11.981Z,101270.45
2024-01-11T12:07:40.427Z,101264.20
2024-01-11T12:10:08.991Z,101259.68
2024-01-11T12:12:38.516Z,101259.33
2024-01-11T12:15:07.317Z,101250.20
2024-01-11T12:17:35.895Z,101244.47
2024-01-11T12:20:04.976Z,101244.69
2024-01-11T12:22:33.527Z,101241.48
2024-01-11T12:25:03.216Z,101239.70
2024-01-11T12:27:32.145Z,101232.86
2024-01-11T12:30:02.968Z,101229.22
2024-01-11T12:32:31.744Z,101225.11
2024-01-11T12:35:00.390Z,101226.77
2024-01-11T12:37:31.880Z,101223.40
2024-01-11T12:40:00.646Z,101224.01
2024-01-11T12:42:29.126Z,101222.00
2024-01-11T12:44:59.494Z,101221.52
2024-01-11T12:47:29.135Z,101217.73
2024-01-11T12:49:57.721Z,101220.06
2024-01-11T12:52:28.658Z,101218.71
2024-01-11T12:55:01.150Z,101216.58
2024-01-11T12:57:30.520Z,101217.08
2024-01-11T13:00:19.612Z,101216.17
2024-01-11T13:02:49.798Z,101207.50
2024-01-11T13:05:18.436Z,101204.75
2024-01-11T13:07:46.672Z,101202.95
2024-01-11T13:10:16.149Z,101203.36
2024-01-11T13:12:48.372Z,101208.85
2024-01-11T13:15:19.805Z,101208.27
2024-01-11T13:17:48.053Z,101211.82
2024-01-11T13:20:16.874Z,101212.17
2024-01-11T13:22:45.520Z,101212.64
2024-01-11T13:25:14.122Z,101206.27
2024-01-11T13:27:42.426Z,101198.62
2024-01-11T13:30:11.232Z,101185.21
2024-01-11T13:32:39.579Z,101178.64
2024-01-11T13:35:08.504Z,101172.55
2024-01-11T13:37:37.044Z,101177.45
2024-01-11T13:40:06.049Z,101170.84
2024-01-11T13:42:34.809Z,101170.13
2024-01-11T13:45:04.408Z,101171.48
2024-01-11T13:47:32.601Z,101174.73
2024-01-11T13:50:01.238Z,101172.27
2024-01-11T13:52:29.755Z,101170.86
2024-01-11T13:54:57.950Z,101172.67
2024-01-11T13:57:26.107Z,101168.98
2024-01-11T13:59:54.290Z,101165.09
2024-01-11T14:02:22.661Z,101164.66
2024-01-11T14:04:50.924Z,101163.88
2024-01-11T14:07:19.782Z,101161.12
2024-01-11T14:09:48.118Z,101156.24
2024-01-11T14:12:17.028Z,101151.52
2024-01-11T14:14:45.187Z,101148.55
2024-01-11T14:17:13.773Z,101149.10
2024-01-11T14:19:42.156Z,101145.28
2024-01-11T14:22:10.771Z,101148.89
2024-01-11T14:24:39.156Z,101144.17
2024-01-11T14:27:08.510Z,101137.02
2024-01-11T14:29:36.927Z,101137.10
2024-01-11T14:32:06.825Z,101135.37
2024-01-11T14:34:35.424Z,101133.67
2024-01-11T14:37:04.009Z,101127.73
2024-01-11T14:39:32.872Z,101124.97
2024-01-11T14:42:01.590Z,101126.88
2024-01-11T14:44:29.768Z,101128.10
2024-01-11T14:46:58.803Z,101128.30
2024-01-11T14:49:27.772Z,101128.65
2024-01-11T14:51:56.589Z,101127.27
2024-01-11T14:54:24.949Z,101127.65
2024-01-11T14:56:53.631Z,101126.82
2024-01-11T14:59:22.060Z,101125.61
2024-01-11T15:01:50.439Z,101121.80
2024-01-11T15:04:19.369Z,101120.27
2024-01-11T15:06:47.758Z,101118.20
2024-01-11T15:09:16.607Z,101123.36
2024-01-11T15:11:45.337Z,101125.17
2024-01-11T15:14:15.219Z,101123.23
2024-01-11T15:16:46.966Z,101116.17
2024-01-11T15:19:15.699Z,101114.98
2024-01-11T15:21:49.140Z,101115.83
2024-01-11T15:24:20.724Z,101111.14
2024-01-11T15:26:50.119Z,101107.91
2024-01-11T15:29:19.447Z,101104.66
2024-01-11T15:31:50.465Z,101104.10
2024-01-11T15:34:20.262Z,101102.07
2024-01-11T15:36:49.466Z,101098.79
2024-01-11T15:39:25.934Z,101098.13
2024-01-11T15:41:58.969Z,101097.07
2024-01-11T15:44:29.827Z,101091.96
2024-01-11T15:46:58.611Z,101091.79
2024-01-11T15:49:28.210Z,101082.82
2024-01-11T15:51:57.304Z,101083.59
2024-01-11T15:54:26.045Z,101076.64
2024-01-11T15:56:55.536Z,101079.89
2024-01-11T15:59:25.404Z,101075.42
2024-01-11T16:02:03.348Z,101071.64
2024-01-11T16:04:36.720Z,101069.11
2024-01-11T16:07:05.526Z,101067.20
2024-01-11T16:09:33.899Z,101062.42
2024-01-11T16:12:05.612Z,101060.92
2024-01-11T16:14:35.318Z,101058.80
2024-01-11T16:17:04.289Z,101062.48
2024-01-11T16:19:35.158Z,101070.75
2024-01-11T16:22:04.665Z,101070.46
2024-01-11T16:24:32.900Z,101067.20
2024-01-11T16:27:01.189Z,101066.98
2024-01-11T16:29:29.811Z,101068.68
2024-01-11T16:31:58.676Z,101068.45
2024-01-11T16:34:27.300Z,101068.43
2024-01-11T16:36:55.577Z,101065.23
2024-01-11T16:39:23.661Z,101064.77
2024-01-11T16:41:53.250Z,101067.17
2024-01-11T16:44:21.454Z,101065.09
2024-01-11T16:46:49.947Z,101059.85
2024-01-11T16:49:18.922Z,101058.79
2024-01-11T16:51:50.629Z,101062.95
2024-01-11T16:54:19.969Z,101062.69
2024-01-11T16:56:49.320Z,101066.73
2024-01-11T16:59:19.433Z,101064.05
2024-01-11T17:01:48.332Z,101063.44
2024-01-11T17:04:17.170Z,101061.59
2024-01-11T17:06:45.839Z,101064.55
2024-01-11T17:09:14.409Z,101062.24
2024-01-11T17:11:43.780Z,101060.84
2024-01-11T17:14:12.773Z,101056.23
2024-01-11T17:16:41.516Z,101056.98
2024-01-11T17:19:09.951Z,101057.39
2024-01-11T17:21:38.137Z,101053.95
2024-01-11T17:24:06.842Z,101053.90
2024-01-11T17:26:35.484Z,101053.00
2024-01-11T17:29:04.168Z,101053.89
2024-01-11T17:31:32.334Z,101051.71
2024-01-11T17:34:01.041Z,101048.52
2024-01-11T17:36:29.491Z,101050.05
2024-01-11T17:38:57.940Z,101056.37
2024-01-11T17:41:26.571Z,101055.48
2024-01-11T17:43:55.051Z,101059.64
2024-01-11T17:46:29.347Z,101057.84
2024-01-11T17:48:58.166Z,101053.73
2024-01-11T17:51:27.253Z,101053.71
2024-01-11T17:53:55.774Z,101056.13
2024-01-11T17:56:24.530Z,101057.84
2024-01-11T17:58:53.449Z,101059.08
2024-01-11T18:01:23.649Z,101064.59
2024-01-11T18:03:51.928Z,101065.79
2024-01-11T18:06:20.343Z,101063.94
2024-01-11T18:08:49.942Z,101067.05
2024-01-11T18:11:18.522Z,101062.06
2024-01-11T18:13:47.297Z,101059.71
2024-01-11T18:16:15.468Z,101060.72
2024-01-11T18:18:45.033Z,101064.17
2024-01-11T18:21:13.563Z,101057.79
2024-01-11T18:23:43.996Z,101058.45
2024-01-11T18:26:12.749Z,101058.67
2024-01-11T18:28:41.171Z,101059.13
2024-01-11T18:31:10.237Z,101050.71
2024-01-11T18:33:38.675Z,101054.23
2024-01-11T18:36:08.529Z,101044.94
2024-01-11T18:38:37.203Z,101039.42
2024-01-11T18:41:07.037Z,101041.92
2024-01-11T18:43:35.565Z,101039.90
2024-01-11T18:46:04.169Z,101041.95
2024-01-11T18:48:39.172Z,101041.88
2024-01-11T18:51:08.250Z,101040.77
2024-01-11T18:53:36.486Z,101042.64
2024-01-11T18:56:12.918Z,101043.27
2024-01-11T18:58:41.486Z,101041.61
2024-01-11T19:01:10.635Z,101036.79
2024-01-11T19:03:40.241Z,101038.05
2024-01-11T19:06:09.226Z,101042.04
2024-01-11T19:08:37.770Z,101040.91
2024-01-11T19:11:07.352Z,101044.48
2024-01-11T19:13:36.154Z,101048.52
2024-01-11T19:16:05.540Z,101048.41
2024-01-11T19:18:34.056Z,101044.52
2024-01-11T19:21:02.945Z,101046.73
2024-01-11T19:23:31.461Z,101052.19
2024-01-11T19:26:00.059Z,101050.33
2024-01-11T19:28:28.348Z,101048.70
2024-01-11T19:30:57.318Z,101049.39
2024-01-11T19:33:26.847Z,101052.50
2024-01-11T19:35:57.366Z,101056.73
2024-01-11T19:38:25.901Z,101062.88
2024-01-11T19:40:54.485Z,101061.60
2024-01-11T19:43:23.465Z,101059.55
2024-01-11T19:45:51.646Z,101055.68
2024-01-11T19:48:20.186Z,101055.90
2024-01-11T19:50:48.999Z,101059.95
2024-01-11T19:53:17.567Z,101060.33
2024-01-11T19:55:46.292Z,101052.17
2024-01-11T19:58:14.693Z,101057.05
2024-01-11T20:00:43.234Z,101051.18
2024-01-11T20:03:11.680Z,101057.17
2024-01-11T20:05:40.074Z,101054.14
2024-01-11T20:08:08.620Z,101059.59
2024-01-11T20:10:36.894Z,101060.48
2024-01-11T20:13:05.712Z,101066.13
2024-01-11T20:15:33.826Z,101064.23
2024-01-11T20:18:03.107Z,101071.58
2024-01-11T20:20:31.445Z,101071.42
2024-01-11T20:22:59.654Z,101067.59
2024-01-11T20:25:28.739Z,101066.77
2024-01-11T20:27:57.118Z,101067.70
2024-01-11T20:30:25.612Z,101068.42
2024-01-11T20:32:54.239Z,101074.36
2024-01-11T20:35:23.466Z,101080.52
2024-01-11T20:37:51.900Z,101083.17
2024-01-11T20:40:20.546Z,101087.27
2024-01-11T20:42:48.841Z,101090.02
2024-01-11T20:45:17.622Z,101084.27
2024-01-11T20:47:46.284Z,101086.52
2024-01-11T20:50:14.785Z,101091.14
2024-01-11T20:52:44.260Z,101098.67
2024-01-11T20:55:12.594Z,101095.71
2024-01-11T20:57:40.722Z,101092.38
2024-01-11T21:00:10.466Z,101093.19
2024-01-11T21:02:39.584Z,101093.81
2024-01-11T21:05:08.670Z,101089.46
2024-01-11T21:07:37.044Z,101085.99
2024-01-11T21:10:06.712Z,101090.65
2024-01-11T21:12:35.452Z,101094.07
2024-01-11T21:15:04.347Z,101092.84
2024-01-11T21:17:32.820Z,101093.88
2024-01-11T21:20:02.156Z,101095.83
2024-01-11T21:22:30.416Z,101091.36
2024-01-11T21:24:58.677Z,101089.88
2024-01-11T21:27:26.930Z,101096.46
2024-01-11T21:29:55.209Z,101093.51
2024-01-11T21:32:23.972Z,101092.02
2024-01-11T21:34:52.569Z,101091.93
2024-01-11T21:37:20.969Z,101092.95
2024-01-11T21:39:49.497Z,101093.48
2024-01-11T21:42:17.714Z,101096.67
2024-01-11T21:44:46.210Z,101093.89
2024-01-11T21:47:14.549Z,101093.44
2024-01-11T21:49:42.820Z,101090.69
2024-01-11T21:52:11.096Z,101089.29
2024-01-11T21:54:39.476Z,101092.88
2024-01-11T21:57:07.598Z,101088.79
2024-01-11T21:59:36.696Z,101094.04
2024-01-11T22:02:05.870Z,101095.23
2024-01-11T22:04:34.066Z,101104.17
2024-01-11T22:07:02.449Z,101102.63
2024-01-11T22:09:30.704Z,101101.56
2024-01-11T22:11:59.217Z,101104.66
2024-01-11T22:14:27.769Z,101102.08
2024-01-11T22:16:56.137Z,101102.40
2024-01-11T22:19:24.523Z,101099.68
2024-01-11T22:21:52.825Z,101103.23
2024-01-11T22:24:21.040Z,101098.17
2024-01-11T22:26:49.616Z,101095.86
2024-01-11T22:29:18.150Z,101093.31
2024-01-11T22:31:46.521Z,101092.91
2024-01-11T22:34:15.226Z,101094.55
2024-01-11T22:36:47.635Z,101090.66
2024-01-11T22:39:15.813Z,101092.20
2024-01-11T22:41:43.952Z,101092.41
2024-01-11T22:44:12.143Z,101096.48
2024-01-11T22:46:40.592Z,101100.54
2024-01-11T22:49:10.040Z,101102.23
2024-01-11T22:51:38.722Z,101104.95
2024-01-11T22:54:08.228Z,101109.29
2024-01-11T22:56:38.843Z,101113.80
2024-01-11T22:59:10.802Z,101108.94
2024-01-11T23:01:42.561Z,101110.85
2024-01-11T23:04:10.676Z,101113.28
2024-01-11T23:06:39.140Z,101108.81
2024-01-11T23:09:11.420Z,101115.67
2024-01-11T23:11:39.582Z,101114.13
2024-01-11T23:14:09.453Z,101104.46
2024-01-11T23:16:37.760Z,101104.14
2024-01-11T23:19:06.826Z,101101.98
2024-01-11T23:21:35.619Z,101101.07
2024-01-11T23:24:04.327Z,101105.29
2024-01-11T23:26:32.974Z,101112.69
2024-01-11T23:29:01.463Z,101119.23
2024-01-11T23:31:29.776Z,101121.77
2024-01-11T23:33:58.311Z,101124.84
2024-01-11T23:36:27.356Z,101121.23
2024-01-11T23:38:56.283Z,101117.06
2024-01-11T23:41:24.508Z,101123.92
2024-01-11T23:43:52.904Z,101129.36
2024-01-11T23:46:21.017Z,101130.77
2024-01-11T23:48:49.414Z,101132.77
2024-01-11T23:51:18.131Z,101134.48
2024-01-11T23:53:46.689Z,101131.15
2024-01-11T23:56:14.917Z,101128.69
2024-01-11T23:58:43.106Z,101130.49
